Time;durP1;ratioP1;P1;durP2;ratioP2;P2;SDS_P1;SDS_P2;PMS_P1;PMS_P2;Temp;Humidity;BMP_temperature;BMP_pressure;BME280_temperature;BME280_humidity;BME280_pressure;Samples;Min_cycle;Max_cycle;Signal;HPM_P1;HPM_P2
2023/08/04 00:00:12;;;;;;;3.47;0.80;;;;;;;17.83;100.00;99508.69;5069814;28;20471;-60
2023/08/04 00:02:38;;;;;;;3.10;0.70;;;;;;;17.84;100.00;99512.25;5069615;28;20111;-60
2023/08/04 00:05:05;;;;;;;1.08;0.60;;;;;;;17.84;100.00;99509.53;5069866;28;20124;-59
2023/08/04 00:07:31;;;;;;;0.98;0.57;;;;;;;17.85;100.00;99506.75;5076029;28;20114;-59
2023/08/04 00:09:56;;;;;;;1.38;0.90;;;;;;;17.86;100.00;99504.91;5089676;28;20027;-60
2023/08/04 00:12:22;;;;;;;1.55;0.50;;;;;;;17.85;100.00;99501.38;5064157;28;20115;-59
2023/08/04 00:14:48;;;;;;;1.17;0.50;;;;;;;17.84;100.00;99507.69;5069978;28;20089;-59
2023/08/04 00:17:13;;;;;;;1.25;0.70;;;;;;;17.81;100.00;99502.53;5084555;28;20463;-60
2023/08/04 00:19:39;;;;;;;1.15;0.65;;;;;;;17.79;100.00;99501.78;5082412;28;20036;-60
2023/08/04 00:22:05;;;;;;;1.55;0.45;;;;;;;17.77;100.00;99506.44;5090879;28;20577;-60
2023/08/04 00:24:30;;;;;;;1.20;0.50;;;;;;;17.74;100.00;99508.47;5090504;28;20032;-59
2023/08/04 00:26:56;;;;;;;1.30;0.50;;;;;;;17.74;100.00;99512.00;5086519;28;20062;-60
2023/08/04 00:29:21;;;;;;;1.83;0.70;;;;;;;17.77;100.00;99517.19;5081400;28;20032;-60
2023/08/04 00:31:46;;;;;;;0.85;0.55;;;;;;;17.78;100.00;99516.22;5090681;28;20454;-61
2023/08/04 00:34:12;;;;;;;2.08;0.80;;;;;;;17.78;100.00;99513.50;5075478;28;20036;-60
2023/08/04 00:36:37;;;;;;;1.10;0.60;;;;;;;17.80;100.00;99511.59;5072791;28;20547;-60
2023/08/04 00:39:03;;;;;;;1.92;0.60;;;;;;;17.80;100.00;99511.59;5082480;28;20028;-59
2023/08/04 00:41:29;;;;;;;1.75;0.60;;;;;;;17.80;100.00;99506.22;5070142;28;20059;-60
2023/08/04 00:43:54;;;;;;;2.53;0.70;;;;;;;17.80;100.00;99502.66;5071589;28;20039;-60
2023/08/04 00:46:20;;;;;;;1.25;0.70;;;;;;;17.80;100.00;99500.81;5068963;28;20052;-60
2023/08/04 00:48:46;;;;;;;1.10;0.60;;;;;;;17.81;100.00;99502.53;5068969;28;20028;-60
2023/08/04 00:51:12;;;;;;;1.65;0.70;;;;;;;17.80;100.00;99506.22;5085621;28;20444;-60
2023/08/04 00:53:38;;;;;;;1.75;0.60;;;;;;;17.83;100.00;99499.72;5088946;28;20038;-60
2023/08/04 00:56:04;;;;;;;2.42;0.70;;;;;;;17.82;100.00;99504.28;5089038;28;20103;-60
2023/08/04 00:58:32;;;;;;;0.57;0.50;;;;;;;17.80;100.00;99494.56;5086350;28;20447;-60
2023/08/04 01:00:59;;;;;;;1.70;0.88;;;;;;;17.81;100.00;99499.84;5072017;28;20483;-60
2023/08/04 01:03:26;;;;;;;2.47;0.88;;;;;;;17.87;100.00;99503.94;5060795;28;20490;-60
2023/08/04 01:06:14;;;;;;;1.98;0.57;;;;;;;17.87;100.00;99503.94;5076128;28;20076;-60
2023/08/04 01:08:48;;;;;;;2.25;0.70;;;;;;;17.89;100.00;99500.16;5068713;28;20032;-60
2023/08/04 01:11:18;;;;;;;3.13;0.60;;;;;;;17.89;100.00;99493.94;5066006;28;20123;-60
2023/08/04 01:13:45;;;;;;;1.38;0.75;;;;;;;17.89;100.00;99492.09;5069463;28;20020;-60
2023/08/04 01:16:10;;;;;;;0.57;0.50;;;;;;;17.90;100.00;99491.13;5069195;28;20024;-60
2023/08/04 01:18:36;;;;;;;1.30;0.80;;;;;;;17.91;100.00;99492.84;5065680;28;20043;-60
2023/08/04 01:21:05;;;;;;;2.13;0.77;;;;;;;17.91;100.00;99492.84;5056088;28;20028;-60
2023/08/04 01:23:31;;;;;;;2.63;0.70;;;;;;;17.91;100.00;99486.59;5068103;28;20107;-60
2023/08/04 01:25:57;;;;;;;1.83;1.33;;;;;;;17.89;100.00;99494.78;5068468;28;20476;-61
2023/08/04 01:28:23;;;;;;;1.00;0.60;;;;;;;17.89;100.00;99483.19;5057478;28;20041;-61
2023/08/04 01:30:54;;;;;;;1.15;0.60;;;;;;;17.90;100.00;99496.53;5048596;28;20024;-60
2023/08/04 01:33:21;;;;;;;1.05;0.52;;;;;;;17.87;100.00;99494.06;5049018;28;20384;-60
2023/08/04 01:35:46;;;;;;;0.60;0.40;;;;;;;17.83;100.00;99484.47;5048905;28;20090;-60
2023/08/04 01:38:12;;;;;;;0.98;0.52;;;;;;;17.81;100.00;99486.38;5053445;28;20021;-61
2023/08/04 01:40:37;;;;;;;3.75;0.80;;;;;;;17.71;100.00;99477.25;5048018;28;20048;-60
2023/08/04 01:43:04;;;;;;;0.68;0.60;;;;;;;17.76;100.00;99498.47;5048171;28;20366;-60
2023/08/04 01:45:29;;;;;;;2.95;0.60;;;;;;;17.78;100.00;99483.91;5065332;28;20032;-60
2023/08/04 01:47:55;;;;;;;0.52;0.50;;;;;;;17.82;100.00;99485.44;5067875;28;20078;-61
2023/08/04 01:50:20;;;;;;;1.38;0.70;;;;;;;17.84;100.00;99486.16;5066305;28;20020;-60
2023/08/04 01:52:46;;;;;;;1.20;0.60;;;;;;;17.85;100.00;99487.91;5053661;28;20028;-60
2023/08/04 01:55:11;;;;;;;2.10;0.68;;;;;;;17.85;100.00;99485.22;5068654;28;20131;-61
2023/08/04 01:57:37;;;;;;;5.18;1.05;;;;;;;17.84;100.00;99493.41;5068235;28;20051;-61
2023/08/04 02:00:03;;;;;;;1.85;0.60;;;;;;;17.84;100.00;99490.72;5065014;28;20036;-61
2023/08/04 02:02:29;;;;;;;2.83;0.80;;;;;;;17.83;100.00;99497.03;5050137;28;20032;-61
2023/08/04 02:04:54;;;;;;;2.25;0.80;;;;;;;17.82;100.00;99496.19;5054440;28;20463;-61
2023/08/04 02:07:19;;;;;;;1.00;0.70;;;;;;;17.82;100.00;99498.91;5082442;28;20082;-61
2023/08/04 02:09:45;;;;;;;3.47;0.80;;;;;;;17.83;100.00;99492.53;5075847;28;20032;-61
2023/08/04 02:12:11;;;;;;;3.35;1.00;;;;;;;17.83;100.00;99489.84;5067326;28;20520;-60
2023/08/04 02:14:36;;;;;;;7.75;0.90;;;;;;;17.83;100.00;99495.22;5069565;28;20166;-61
2023/08/04 02:17:02;;;;;;;3.13;0.70;;;;;;;17.83;100.00;99495.22;5068530;28;20031;-61
2023/08/04 02:19:27;;;;;;;1.83;0.80;;;;;;;17.84;100.00;99490.72;5088041;28;20050;-61
2023/08/04 02:21:53;;;;;;;1.33;1.00;;;;;;;17.80;100.00;99489.19;5075432;28;20044;-61
2023/08/04 02:24:18;;;;;;;2.67;0.70;;;;;;;17.79;100.00;99499.09;5074001;28;20040;-61
2023/08/04 02:26:47;;;;;;;1.17;0.50;;;;;;;17.76;100.00;99491.22;5068359;28;20994;-61
2023/08/04 02:29:13;;;;;;;1.35;0.60;;;;;;;17.74;100.00;99493.16;5070416;28;20382;-61
2023/08/04 02:31:39;;;;;;;1.98;0.75;;;;;;;17.72;100.00;99492.44;5067668;28;20054;-60
2023/08/04 02:34:04;;;;;;;0.63;0.50;;;;;;;17.70;100.00;99494.38;5067588;28;20467;-61
2023/08/04 02:36:30;;;;;;;3.38;0.70;;;;;;;17.68;100.00;99496.28;5067071;28;20024;-61
2023/08/04 02:38:55;;;;;;;1.13;0.65;;;;;;;17.68;100.00;99484.66;5074842;28;20047;-61
2023/08/04 02:41:21;;;;;;;2.45;0.73;;;;;;;17.66;100.00;99486.63;5069446;28;20070;-61
2023/08/04 02:43:46;;;;;;;2.20;0.65;;;;;;;17.64;100.00;99486.72;5069445;28;20058;-61
2023/08/04 02:46:12;;;;;;;1.05;0.55;;;;;;;17.62;100.00;99493.16;5084086;28;20043;-61
2023/08/04 02:48:37;;;;;;;2.65;0.70;;;;;;;17.61;100.00;99494.97;5077697;28;20029;-61
2023/08/04 02:51:08;;;;;;;2.42;0.70;;;;;;;17.58;100.00;99495.19;5068158;28;20028;-61
2023/08/04 02:53:35;;;;;;;0.95;0.63;;;;;;;17.58;100.00;99500.59;5075421;28;20032;-60
2023/08/04 02:56:08;;;;;;;1.33;0.60;;;;;;;17.58;100.00;99503.28;5084704;28;20020;-61
2023/08/04 02:58:33;;;;;;;0.75;0.63;;;;;;;17.56;100.00;99502.50;5088279;28;20023;-61
2023/08/04 03:00:59;;;;;;;0.75;0.60;;;;;;;17.60;100.00;99503.16;5082750;28;20047;-60
2023/08/04 03:03:24;;;;;;;3.65;0.70;;;;;;;17.60;100.00;99504.03;5087959;28;20020;-60
2023/08/04 03:05:50;;;;;;;1.13;0.70;;;;;;;17.62;100.00;99504.78;5078646;28;20064;-61
2023/08/04 03:08:15;;;;;;;2.05;0.80;;;;;;;17.57;100.00;99504.25;5067776;28;20396;-61
2023/08/04 03:10:42;;;;;;;1.00;0.80;;;;;;;17.61;100.00;99505.75;5068133;28;20024;-60
2023/08/04 03:13:08;;;;;;;1.67;0.85;;;;;;;17.59;100.00;99507.72;5067926;28;20707;-61
2023/08/04 03:15:34;;;;;;;3.88;1.35;;;;;;;17.57;100.00;99515.00;5058734;28;20575;-61
2023/08/04 03:18:00;;;;;;;3.05;0.73;;;;;;;17.57;100.00;99515.00;5065862;28;20024;-61
2023/08/04 03:20:25;;;;;;;0.82;0.50;;;;;;;17.57;100.00;99514.13;5067657;28;20024;-61
2023/08/04 03:22:51;;;;;;;5.28;1.20;;;;;;;17.58;100.00;99521.22;5067369;28;20127;-61
2023/08/04 03:25:16;;;;;;;1.65;0.90;;;;;;;17.59;100.00;99517.59;5064339;28;20029;-61
2023/08/04 03:27:42;;;;;;;40.50;4.80;;;;;;;17.59;100.00;99523.84;5080780;28;20067;-61
2023/08/04 03:30:07;;;;;;;4.30;0.90;;;;;;;17.57;100.00;99530.28;5057499;28;20126;-60
2023/08/04 03:32:33;;;;;;;7.88;1.27;;;;;;;17.60;100.00;99530.94;5047862;28;20705;-60
2023/08/04 03:34:58;;;;;;;5.97;1.00;;;;;;;17.61;100.00;99529.94;5058058;28;20089;-61
2023/08/04 03:37:24;;;;;;;3.40;0.88;;;;;;;17.58;100.00;99526.59;5049914;28;20025;-60
2023/08/04 03:39:49;;;;;;;0.80;0.57;;;;;;;17.58;100.00;99530.16;5050422;28;20115;-60
2023/08/04 03:42:14;;;;;;;2.42;0.70;;;;;;;17.52;100.00;99522.53;5055635;28;20017;-60
2023/08/04 03:44:40;;;;;;;2.20;0.93;;;;;;;17.50;100.00;99537.03;5063460;28;20058;-60
2023/08/04 03:47:05;;;;;;;3.33;0.90;;;;;;;17.49;100.00;99536.19;5051261;28;20127;-61
2023/08/04 03:49:31;;;;;;;3.08;0.93;;;;;;;17.48;100.00;99542.53;5053307;28;20021;-60
2023/08/04 03:51:56;;;;;;;1.20;0.90;;;;;;;17.49;100.00;99532.63;5070813;28;20498;-61
2023/08/04 03:54:22;;;;;;;4.97;0.90;;;;;;;17.49;100.00;99535.31;5062679;28;20056;-60
2023/08/04 03:56:47;;;;;;;1.38;0.60;;;;;;;17.47;100.00;99540.81;5071063;28;20024;-60
2023/08/04 03:59:12;;;;;;;2.45;0.90;;;;;;;17.50;100.00;99540.59;5071175;28;20077;-61
2023/08/04 04:01:38;;;;;;;1.98;0.80;;;;;;;17.45;100.00;99540.03;5064622;28;20370;-61
2023/08/04 04:04:04;;;;;;;1.85;0.70;;;;;;;17.44;100.00;99543.69;5050766;28;20024;-60
2023/08/04 04:06:29;;;;;;;1.85;1.00;;;;;;;17.43;100.00;99544.63;5069133;28;20449;-60
2023/08/04 04:08:55;;;;;;;1.65;0.93;;;;;;;17.43;100.00;99546.47;5070109;28;20051;-60
2023/08/04 04:11:20;;;;;;;4.07;0.80;;;;;;;17.40;100.00;99547.53;5071868;28;20028;-60
2023/08/04 04:13:46;;;;;;;2.03;0.90;;;;;;;17.39;100.00;99543.13;5068947;28;20052;-61
2023/08/04 04:16:11;;;;;;;0.73;0.63;;;;;;;17.39;100.00;99548.50;5080474;28;20097;-60
2023/08/04 04:18:37;;;;;;;2.60;0.80;;;;;;;17.41;100.00;99543.91;5087902;28;20028;-60
2023/08/04 04:21:02;;;;;;;3.13;0.73;;;;;;;17.39;100.00;99553.00;5085558;28;20020;-60
2023/08/04 04:23:28;;;;;;;2.28;1.00;;;;;;;17.39;100.00;99544.94;5077515;28;20068;-61
2023/08/04 04:25:53;;;;;;;2.60;1.13;;;;;;;17.37;100.00;99550.44;5087973;28;20028;-61
2023/08/04 04:28:19;;;;;;;1.15;0.82;;;;;;;17.40;100.00;99557.41;5083663;28;20036;-60
2023/08/04 04:30:45;;;;;;;1.92;0.98;;;;;;;17.42;100.00;99550.97;5069809;28;20036;-60
2023/08/04 04:33:10;;;;;;;2.17;0.82;;;;;;;17.44;100.00;99556.25;5077753;28;20131;-60
2023/08/04 04:35:36;;;;;;;2.55;0.90;;;;;;;17.43;100.00;99554.53;5070722;28;20054;-61
2023/08/04 04:38:01;;;;;;;2.05;0.90;;;;;;;17.44;100.00;99556.25;5069134;28;20031;-60
2023/08/04 04:40:27;;;;;;;1.98;0.90;;;;;;;17.42;100.00;99561.72;5070250;28;20222;-61
2023/08/04 04:42:52;;;;;;;1.17;0.80;;;;;;;17.44;100.00;99562.50;5088621;28;20089;-60
2023/08/04 04:45:18;;;;;;;3.72;1.00;;;;;;;17.45;100.00;99563.34;5088522;28;20297;-61
2023/08/04 04:47:43;;;;;;;3.00;0.90;;;;;;;17.41;100.00;99575.28;5089495;28;20024;-60
2023/08/04 04:50:09;;;;;;;2.75;1.00;;;;;;;17.37;100.00;99566.56;5085666;28;20448;-60
2023/08/04 04:52:36;;;;;;;4.13;0.82;;;;;;;17.39;100.00;99571.84;5070840;28;20055;-60
2023/08/04 04:55:05;;;;;;;2.72;1.00;;;;;;;17.42;100.00;99577.88;5088956;28;20020;-60
2023/08/04 04:57:31;;;;;;;1.48;0.80;;;;;;;17.44;100.00;99581.31;5074725;28;20756;-61
2023/08/04 04:59:56;;;;;;;4.55;1.05;;;;;;;17.39;100.00;99578.09;5070806;28;20066;-61
2023/08/04 05:02:22;;;;;;;1.58;0.98;;;;;;;17.35;100.00;99579.25;5073424;28;20037;-60
2023/08/04 05:04:48;;;;;;;4.75;1.25;;;;;;;17.33;100.00;99570.41;5069647;28;20079;-61
2023/08/04 05:07:13;;;;;;;3.40;0.90;;;;;;;17.35;100.00;99565.78;5074469;28;20138;-60
2023/08/04 05:09:39;;;;;;;1.15;0.80;;;;;;;17.38;100.00;99567.44;5088343;28;20491;-60
2023/08/04 05:12:06;;;;;;;1.88;0.80;;;;;;;17.37;100.00;99577.31;5077214;28;20032;-61
2023/08/04 05:14:33;;;;;;;1.95;0.70;;;;;;;17.37;100.00;99577.31;5089861;28;20028;-60
2023/08/04 05:16:59;;;;;;;0.93;0.70;;;;;;;17.41;100.00;99576.16;5089054;28;20069;-60
2023/08/04 05:19:24;;;;;;;1.67;0.80;;;;;;;17.42;100.00;99577.88;5085813;28;20020;-60
2023/08/04 05:21:49;;;;;;;4.50;1.15;;;;;;;17.42;100.00;99575.19;5071799;28;20828;-61
2023/08/04 05:24:15;;;;;;;2.65;0.90;;;;;;;17.42;100.00;99580.56;5086360;28;20119;-60
2023/08/04 05:26:41;;;;;;;3.25;1.15;;;;;;;17.45;100.00;99580.38;5084692;28;20526;-60
2023/08/04 05:29:06;;;;;;;3.80;1.20;;;;;;;17.50;100.00;99583.63;5087449;28;20035;-60
2023/08/04 05:31:32;;;;;;;1.38;0.90;;;;;;;17.56;100.00;99583.19;5087545;28;20407;-60
2023/08/04 05:34:00;;;;;;;2.60;1.20;;;;;;;17.56;100.00;99588.56;5082603;28;20085;-61
2023/08/04 05:36:26;;;;;;;4.45;1.10;;;;;;;17.57;100.00;99586.75;5068295;28;20024;-60
2023/08/04 05:38:51;;;;;;;1.30;0.90;;;;;;;17.59;100.00;99588.41;5069042;28;20073;-59
2023/08/04 05:41:17;;;;;;;1.95;0.93;;;;;;;17.63;100.00;99592.56;5068928;28;20499;-60
2023/08/04 05:43:42;;;;;;;1.58;1.10;;;;;;;17.65;100.00;99587.97;5074749;28;20126;-60
2023/08/04 05:46:12;;;;;;;1.98;1.27;;;;;;;17.65;100.00;99593.34;5088751;28;20023;-60
2023/08/04 05:48:38;;;;;;;2.83;1.10;;;;;;;17.68;100.00;99595.81;5086204;28;20039;-60
2023/08/04 05:51:04;;;;;;;2.30;1.10;;;;;;;17.73;100.00;99596.38;5088094;28;20047;-59
2023/08/04 05:53:29;;;;;;;2.00;0.95;;;;;;;17.81;100.00;99603.91;5070012;28;20032;-60
2023/08/04 05:55:54;;;;;;;2.17;1.13;;;;;;;17.94;100.00;99600.28;5075578;28;20111;-60
2023/08/04 05:58:20;;;;;;;2.58;1.23;;;;;;;18.04;100.00;99608.56;5067902;28;20043;-60
2023/08/04 06:00:46;;;;;;;2.47;1.10;;;;;;;17.97;100.00;99601.91;5068305;28;20079;-60
2023/08/04 06:03:11;;;;;;;4.63;1.42;;;;;;;18.00;100.00;99605.25;5070997;28;20078;-60
2023/08/04 06:05:37;;;;;;;4.43;1.25;;;;;;;18.06;100.00;99602.13;5068471;28;20105;-60
2023/08/04 06:08:03;;;;;;;2.03;1.17;;;;;;;18.15;100.00;99606.84;5070879;28;20029;-60
2023/08/04 06:10:29;;;;;;;3.20;1.50;;;;;;;18.21;100.00;99605.56;5068155;28;20036;-60
2023/08/04 06:12:54;;;;;;;1.80;1.02;;;;;;;18.22;100.00;99600.06;5068728;28;20130;-60
2023/08/04 06:15:21;;;;;;;2.45;1.08;;;;;;;18.24;100.00;99606.22;5081342;28;20032;-60
2023/08/04 06:17:47;;;;;;;2.47;1.23;;;;;;;18.31;100.00;99603.97;5078425;28;20096;-60
2023/08/04 06:20:12;;;;;;;3.13;1.50;;;;;;;18.22;100.00;99600.06;5087708;28;20409;-60
2023/08/04 06:22:38;;;;;;;3.38;1.33;;;;;;;18.26;100.00;99609.66;5084274;28;20028;-60
2023/08/04 06:25:04;;;;;;;4.07;1.20;;;;;;;18.37;100.00;99607.06;5080579;28;20024;-61
2023/08/04 06:27:29;;;;;;;2.85;1.50;;;;;;;18.55;100.00;99606.78;5085477;28;20027;-60
2023/08/04 06:29:55;;;;;;;4.32;1.25;;;;;;;18.75;100.00;99608.88;5083881;28;20032;-60
2023/08/04 06:32:21;;;;;;;2.28;1.10;;;;;;;18.96;100.00;99610.88;5084307;28;20098;-60
2023/08/04 06:34:46;;;;;;;2.92;1.15;;;;;;;18.95;100.00;99616.38;5087254;28;20035;-59
2023/08/04 06:37:12;;;;;;;1.52;0.90;;;;;;;19.05;100.00;99617.44;5087334;28;20066;-60
2023/08/04 06:39:38;;;;;;;2.20;1.20;;;;;;;19.06;100.00;99619.19;5087248;28;20024;-60
2023/08/04 06:42:04;;;;;;;3.05;1.45;;;;;;;19.11;100.00;99617.84;5070856;28;20074;-60
2023/08/04 06:44:30;;;;;;;3.25;1.00;;;;;;;19.26;100.00;99621.25;5079261;28;20035;-60
2023/08/04 06:46:55;;;;;;;2.88;1.10;;;;;;;19.40;100.00;99619.28;5057675;28;20044;-60
2023/08/04 06:49:21;;;;;;;2.17;1.15;;;;;;;19.64;100.00;99624.66;5086142;28;20020;-60
2023/08/04 06:51:49;;;;;;;4.82;1.20;;;;;;;20.04;100.00;99620.66;5084471;28;20032;-60
2023/08/04 06:54:15;;;;;;;2.60;1.08;;;;;;;20.40;100.00;99628.59;5067405;28;20077;-60
2023/08/04 06:56:40;;;;;;;3.72;1.00;;;;;;;20.50;100.00;99628.72;5082171;28;20049;-60
2023/08/04 06:59:05;;;;;;;2.30;1.00;;;;;;;20.64;99.08;99631.22;5082068;28;20123;-60
2023/08/04 07:01:31;;;;;;;2.03;1.10;;;;;;;20.48;97.60;99636.97;5085356;28;20384;-60
2023/08/04 07:03:56;;;;;;;2.83;0.85;;;;;;;20.39;97.58;99626.03;5071187;28;20028;-60
2023/08/04 07:06:23;;;;;;;3.53;0.95;;;;;;;20.33;97.22;99632.75;5070193;28;20075;-60
2023/08/04 07:08:48;;;;;;;1.50;0.95;;;;;;;20.21;95.47;99628.34;5086700;28;20527;-60
2023/08/04 07:11:16;;;;;;;4.15;0.98;;;;;;;20.32;95.91;99625.66;5088364;28;20103;-60
2023/08/04 07:13:42;;;;;;;1.83;1.00;;;;;;;20.49;96.29;99625.16;5089551;28;20035;-60
2023/08/04 07:16:07;;;;;;;2.13;0.85;;;;;;;20.77;95.92;99627.38;5083658;28;20036;-60
2023/08/04 07:18:32;;;;;;;5.70;1.13;;;;;;;21.01;94.24;99629.13;5087601;28;20446;-60
2023/08/04 07:21:12;;;;;;;1.40;0.70;;;;;;;21.07;93.33;99644.88;5087756;28;20023;-60
2023/08/04 07:23:39;;;;;;;5.20;0.82;;;;;;;20.93;91.12;99641.41;5087315;28;20042;-60
2023/08/04 07:26:06;;;;;;;2.55;1.10;;;;;;;20.83;92.28;99634.16;5069855;28;20024;-60
2023/08/04 07:28:33;;;;;;;3.08;1.00;;;;;;;20.77;93.16;99634.66;5069008;28;20030;-60
2023/08/04 07:31:04;;;;;;;1.20;0.90;;;;;;;20.77;94.36;99638.19;5075891;28;20028;-60
2023/08/04 07:33:30;;;;;;;3.60;1.05;;;;;;;20.66;94.44;99651.72;5069596;28;20032;-59
2023/08/04 07:35:56;;;;;;;2.97;1.60;;;;;;;20.57;94.83;99646.19;5071190;28;20542;-60
2023/08/04 07:38:22;;;;;;;2.72;1.05;;;;;;;20.56;95.85;99641.78;5069683;28;20475;-60
2023/08/04 07:40:48;;;;;;;2.25;0.77;;;;;;;20.60;95.74;99644.09;5069454;28;20020;-60
2023/08/04 07:43:14;;;;;;;4.55;1.25;;;;;;;20.66;93.80;99640.03;5072932;28;20078;-60
2023/08/04 07:45:40;;;;;;;2.08;1.15;;;;;;;20.59;93.08;99636.97;5088664;28;20391;-61
2023/08/04 07:48:05;;;;;;;3.08;0.80;;;;;;;20.85;94.36;99646.59;5077591;28;20098;-60
2023/08/04 07:50:31;;;;;;;1.67;0.90;;;;;;;20.88;92.23;99640.91;5085689;28;20048;-60
2023/08/04 07:52:56;;;;;;;3.67;0.90;;;;;;;20.87;91.35;99641.88;5078138;28;20499;-60
2023/08/04 07:55:22;;;;;;;1.45;0.85;;;;;;;20.94;91.97;99640.41;5087131;28;20034;-60
2023/08/04 07:57:48;;;;;;;2.33;0.90;;;;;;;21.20;92.08;99635.63;5085254;28;20489;-60
2023/08/04 08:00:14;;;;;;;1.15;0.75;;;;;;;21.51;91.06;99644.78;5087665;28;20031;-60
2023/08/04 08:02:39;;;;;;;3.83;1.15;;;;;;;21.83;88.96;99649.25;5072238;28;20079;-60
2023/08/04 08:05:05;;;;;;;1.98;1.00;;;;;;;22.08;87.89;99640.75;5088630;28;20117;-60
2023/08/04 08:07:30;;;;;;;1.85;1.17;;;;;;;22.18;87.09;99640.81;5080489;28;20043;-60
2023/08/04 08:09:56;;;;;;;2.17;0.82;;;;;;;22.32;85.29;99643.22;5084796;28;20036;-60
2023/08/04 08:12:21;;;;;;;1.25;0.95;;;;;;;22.26;85.43;99642.88;5087552;28;20028;-60
2023/08/04 08:14:47;;;;;;;1.35;0.82;;;;;;;22.23;85.53;99654.84;5083786;28;20166;-60
2023/08/04 08:17:12;;;;;;;2.45;1.13;;;;;;;22.36;86.17;99650.06;5089029;28;20024;-60
2023/08/04 08:19:37;;;;;;;2.78;1.48;;;;;;;22.95;84.78;99644.84;5082808;28;20028;-61
2023/08/04 08:22:03;;;;;;;3.05;1.55;;;;;;;23.71;82.29;99646.91;5063764;28;20394;-60
2023/08/04 08:24:28;;;;;;;3.08;1.70;;;;;;;24.28;75.75;99653.25;5087974;28;20119;-61
2023/08/04 08:26:54;;;;;;;2.85;1.40;;;;;;;24.61;72.31;99646.47;5088140;28;20024;-62
2023/08/04 08:29:19;;;;;;;4.40;1.20;;;;;;;24.85;68.15;99655.00;5089660;28;20111;-61
2023/08/04 08:31:45;;;;;;;1.30;0.85;;;;;;;24.87;72.06;99657.59;5083286;28;20032;-61
2023/08/04 08:34:10;;;;;;;5.35;1.38;;;;;;;24.87;71.26;99658.44;5070359;28;20024;-60
2023/08/04 08:36:35;;;;;;;4.30;1.15;;;;;;;24.57;68.64;99658.63;5071561;28;20038;-61
2023/08/04 08:39:01;;;;;;;3.42;1.35;;;;;;;24.22;72.01;99662.00;5081852;28;20024;-61
2023/08/04 08:41:26;;;;;;;1.80;1.10;;;;;;;24.09;72.81;99658.72;5075681;28;20111;-61
2023/08/04 08:43:52;;;;;;;1.90;1.05;;;;;;;23.98;73.17;99661.59;5073877;28;20051;-61
2023/08/04 08:46:18;;;;;;;3.90;1.10;;;;;;;23.85;74.79;99657.38;5087159;28;20024;-61
2023/08/04 08:48:47;;;;;;;4.00;1.10;;;;;;;23.69;74.44;99665.25;5089367;28;20028;-61
2023/08/04 08:51:18;;;;;;;2.40;1.00;;;;;;;23.62;76.09;99659.53;5089586;28;20016;-62
2023/08/04 08:53:47;;;;;;;4.28;1.25;;;;;;;23.59;75.87;99658.94;5090173;28;20024;-61
2023/08/04 08:56:13;;;;;;;2.78;1.00;;;;;;;23.38;75.14;99651.75;5085907;28;20060;-61
2023/08/04 08:58:40;;;;;;;5.22;1.30;;;;;;;23.18;77.75;99651.78;5086365;28;20026;-61
2023/08/04 09:01:06;;;;;;;2.90;1.30;;;;;;;23.03;81.25;99648.59;5083863;28;20028;-61
2023/08/04 09:03:34;;;;;;;2.63;1.10;;;;;;;23.07;83.78;99651.91;5068626;28;20127;-61
2023/08/04 09:05:59;;;;;;;3.75;1.38;;;;;;;23.03;84.31;99656.72;5068523;28;20135;-61
2023/08/04 09:08:25;;;;;;;2.47;1.38;;;;;;;23.00;84.24;99653.44;5070626;28;20451;-61
2023/08/04 09:10:50;;;;;;;2.25;1.15;;;;;;;22.91;83.77;99657.84;5068469;28;20036;-61
2023/08/04 09:13:15;;;;;;;1.48;1.08;;;;;;;22.90;83.54;99656.09;5082436;28;20356;-61
2023/08/04 09:15:50;;;;;;;3.50;1.20;;;;;;;22.79;81.78;99661.63;5087044;28;20053;-61
2023/08/04 09:18:30;;;;;;;4.13;1.42;;;;;;;22.68;81.98;99656.31;5069897;28;20191;-61
2023/08/04 09:21:00;;;;;;;2.70;1.20;;;;;;;22.67;79.89;99651.03;5069384;28;20048;-61
2023/08/04 09:23:28;;;;;;;2.28;1.10;;;;;;;22.67;78.65;99653.72;5071436;28;20054;-61
2023/08/04 09:25:53;;;;;;;3.58;1.00;;;;;;;22.69;78.90;99655.28;5083351;28;20047;-61
2023/08/04 09:28:19;;;;;;;2.15;1.00;;;;;;;22.66;80.44;99652.88;5081475;28;20102;-61
2023/08/04 09:31:01;;;;;;;1.92;0.90;;;;;;;22.52;82.06;99650.44;5068587;28;20316;-61
2023/08/04 09:33:27;;;;;;;1.67;1.10;;;;;;;22.62;83.41;99653.28;5080569;28;20119;-62
2023/08/04 09:36:05;;;;;;;2.13;1.05;;;;;;;22.67;82.36;99654.56;5068662;28;20789;-62
2023/08/04 09:38:31;;;;;;;2.78;1.05;;;;;;;22.84;81.85;99667.50;5071682;28;20056;-61
2023/08/04 09:41:07;;;;;;;2.28;1.55;;;;;;;23.13;79.05;99657.63;5068827;28;20051;-61
2023/08/04 09:43:33;;;;;;;3.17;0.88;;;;;;;23.55;79.15;99652.06;5088369;28;20423;-61
2023/08/04 09:46:05;;;;;;;2.10;0.75;;;;;;;23.91;74.96;99654.09;5086409;28;20480;-61
2023/08/04 09:48:31;;;;;;;1.08;0.73;;;;;;;24.57;69.16;99658.63;5068243;28;20040;-61
2023/08/04 09:51:14;;;;;;;2.88;0.70;;;;;;;25.23;69.39;99662.16;5066640;28;20029;-61
2023/08/04 09:53:45;;;;;;;1.77;0.75;;;;;;;25.89;68.73;99650.88;5066134;28;20719;-61
2023/08/04 09:56:12;;;;;;;1.10;0.55;;;;;;;26.47;65.38;99666.75;5075580;28;20480;-61
2023/08/04 09:58:38;;;;;;;1.83;0.73;;;;;;;26.27;67.11;99659.75;5065637;28;20016;-62
2023/08/04 10:01:04;;;;;;;5.20;1.13;;;;;;;25.84;65.77;99663.25;5070033;28;20034;-62
2023/08/04 10:03:31;;;;;;;1.88;0.70;;;;;;;25.59;68.88;99664.84;5086226;28;20024;-61
2023/08/04 10:06:01;;;;;;;2.03;0.70;;;;;;;25.28;69.20;99665.28;5086612;28;20067;-62
2023/08/04 10:08:31;;;;;;;3.08;0.70;;;;;;;25.06;67.64;99661.09;5086777;28;20036;-61
2023/08/04 10:10:59;;;;;;;1.20;0.50;;;;;;;24.86;66.65;99662.16;5074936;28;20052;-62
2023/08/04 10:13:32;;;;;;;5.05;0.70;;;;;;;24.70;67.70;99667.38;5074954;28;20062;-62
2023/08/04 10:16:00;;;;;;;2.17;0.50;;;;;;;24.65;69.02;99666.91;5083824;28;20414;-61
2023/08/04 10:18:25;;;;;;;1.45;0.43;;;;;;;24.67;66.43;99662.19;5087880;28;20533;-62
2023/08/04 10:20:52;;;;;;;1.05;0.40;;;;;;;25.14;69.80;99655.75;5087516;28;20028;-61
2023/08/04 10:23:18;;;;;;;1.70;0.50;;;;;;;25.95;67.10;99652.97;5087453;28;20035;-62
2023/08/04 10:25:54;;;;;;;0.75;0.50;;;;;;;26.75;67.71;99662.88;5079570;28;20661;-62
2023/08/04 10:28:20;;;;;;;0.80;0.47;;;;;;;27.03;65.32;99669.88;5077963;28;20028;-61
2023/08/04 10:30:46;;;;;;;0.65;0.50;;;;;;;26.50;63.91;99667.28;5069633;28;20040;-61
2023/08/04 10:33:11;;;;;;;2.50;0.60;;;;;;;26.15;67.17;99670.03;5076698;28;20473;-62
2023/08/04 10:36:09;;;;;;;3.28;0.70;;;;;;;25.98;69.61;99670.03;5087807;28;20028;-62
2023/08/04 10:38:46;;;;;;;1.80;0.50;;;;;;;25.76;69.37;99674.06;5070365;28;20850;-61
2023/08/04 10:41:12;;;;;;;0.77;0.50;;;;;;;25.49;70.07;99669.50;5069712;28;20035;-62
2023/08/04 10:43:39;;;;;;;2.22;0.40;;;;;;;25.33;70.27;99665.69;5069862;28;20024;-62
2023/08/04 10:46:10;;;;;;;1.63;0.55;;;;;;;25.10;70.76;99667.97;5086688;28;20027;-62
2023/08/04 10:48:40;;;;;;;2.05;0.60;;;;;;;25.14;70.53;99668.50;5067681;28;20036;-61
2023/08/04 10:51:07;;;;;;;1.50;0.47;;;;;;;25.08;69.75;99669.97;5086971;28;20020;-61
2023/08/04 10:53:32;;;;;;;0.47;0.40;;;;;;;24.84;69.64;99682.38;5070881;28;20759;-61
2023/08/04 10:56:00;;;;;;;1.13;0.60;;;;;;;23.97;74.61;99680.72;5075817;28;20021;-61
2023/08/04 10:58:27;;;;;;;1.38;0.50;;;;;;;23.47;77.23;99674.50;5066866;28;20024;-61
2023/08/04 11:00:53;;;;;;;1.75;0.63;;;;;;;22.98;80.72;99702.41;5082137;28;20042;-61
2023/08/04 11:03:25;;;;;;;1.73;0.90;;;;;;;22.24;80.75;99715.31;5080601;28;20095;-61
2023/08/04 11:05:52;;;;;;;1.10;0.80;;;;;;;21.79;83.24;99720.03;5073150;28;20047;-61
2023/08/04 11:08:21;;;;;;;2.63;1.40;;;;;;;21.42;86.44;99726.72;5075992;28;20063;-61
2023/08/04 11:10:52;;;;;;;2.40;1.20;;;;;;;20.93;90.17;99735.19;5068034;28;20060;-61
2023/08/04 11:13:19;;;;;;;2.80;1.38;;;;;;;20.71;93.15;99749.53;5075360;28;20509;-61
2023/08/04 11:15:45;;;;;;;3.67;1.77;;;;;;;20.40;95.59;99742.09;5087043;28;20024;-61
2023/08/04 11:18:29;;;;;;;2.70;1.40;;;;;;;20.22;98.65;99757.00;5085685;28;20077;-61
2023/08/04 11:21:00;;;;;;;3.22;1.48;;;;;;;20.08;100.00;99757.13;5071722;28;20542;-60
2023/08/04 11:23:30;;;;;;;3.55;1.50;;;;;;;20.03;100.00;99759.31;5074494;28;20058;-60
2023/08/04 11:25:57;;;;;;;2.70;1.35;;;;;;;19.98;100.00;99766.06;5070277;28;20757;-62